Map

Track Data

SID SEASON NUMBER BASIN SUBBASIN NAME ISO_TIME NATURE LAT LON WMO_WIND WMO_PRES WMO_AGENCY TRACK_TYPE DIST2LAND LANDFALL IFLAG USA_AGENCY USA_ATCF_ID USA_LAT USA_LON USA_RECORD USA_STATUS USA_WIND USA_PRES USA_SSHS USA_R34_NE USA_R34_SE USA_R34_SW USA_R34_NW USA_R50_NE USA_R50_SE USA_R50_SW USA_R50_NW USA_R64_NE USA_R64_SE USA_R64_SW USA_R64_NW USA_POCI USA_ROCI USA_RMW USA_EYE TOKYO_LAT TOKYO_LON TOKYO_GRADE TOKYO_WIND TOKYO_PRES TOKYO_R50_DIR TOKYO_R50_LONG TOKYO_R50_SHORT TOKYO_R30_DIR TOKYO_R30_LONG TOKYO_R30_SHORT TOKYO_LAND CMA_LAT CMA_LON CMA_CAT CMA_WIND CMA_PRES HKO_LAT HKO_LON HKO_CAT HKO_WIND HKO_PRES NEWDELHI_LAT NEWDELHI_LON NEWDELHI_GRADE NEWDELHI_WIND NEWDELHI_PRES NEWDELHI_CI NEWDELHI_DP NEWDELHI_POCI REUNION_LAT REUNION_LON REUNION_TYPE REUNION_WIND REUNION_PRES REUNION_TNUM REUNION_CI REUNION_RMW REUNION_R34_NE REUNION_R34_SE REUNION_R34_SW REUNION_R34_NW REUNION_R50_NE REUNION_R50_SE REUNION_R50_SW REUNION_R50_NW REUNION_R64_NE REUNION_R64_SE REUNION_R64_SW REUNION_R64_NW BOM_LAT BOM_LON BOM_TYPE BOM_WIND BOM_PRES BOM_TNUM BOM_CI BOM_RMW BOM_R34_NE BOM_R34_SE BOM_R34_SW BOM_R34_NW BOM_R50_NE BOM_R50_SE BOM_R50_SW BOM_R50_NW BOM_R64_NE BOM_R64_SE BOM_R64_SW BOM_R64_NW BOM_ROCI BOM_POCI BOM_EYE BOM_POS_METHOD BOM_PRES_METHOD NADI_LAT NADI_LON NADI_CAT NADI_WIND NADI_PRES WELLINGTON_LAT WELLINGTON_LON WELLINGTON_WIND WELLINGTON_PRES DS824_LAT DS824_LON DS824_STAGE DS824_WIND DS824_PRES TD9636_LAT TD9636_LON TD9636_STAGE TD9636_WIND TD9636_PRES TD9635_LAT TD9635_LON TD9635_WIND TD9635_PRES TD9635_ROCI NEUMANN_LAT NEUMANN_LON NEUMANN_CLASS NEUMANN_WIND NEUMANN_PRES MLC_LAT MLC_LON MLC_CLASS MLC_WIND MLC_PRES USA_GUST BOM_GUST BOM_GUST_PER REUNION_GUST REUNION_GUST_PER USA_SEAHGT USA_SEARAD_NE USA_SEARAD_SE USA_SEARAD_SW USA_SEARAD_NW STORM_SPEED STORM_DIR
1890011S08089 1890 1 SI MM NOT_NAMED 1890-01-11 00:00:00 TS -7.50000 88.6000 main 1314 1314 _________O____ -1 -7.50000 88.6000 TC 18 257
1890011S08089 1890 1 SI MM NOT_NAMED 1890-01-11 03:00:00 TS -7.69780 87.7076 main 1411 1411 _________P____ -1 -7.69780 87.7076 TC 18 257
1890011S08089 1890 1 SI MM NOT_NAMED 1890-01-11 06:00:00 TS -7.90000 86.8000 main 1508 1508 _________O____ -1 -7.90000 86.8000 TC 19 257
1890011S08089 1890 1 SI MM NOT_NAMED 1890-01-11 09:00:00 TS -8.10744 85.8775 main 1606 1606 _________P____ -1 -8.10744 85.8775 TC 18 257
1890011S08089 1890 1 SI MM NOT_NAMED 1890-01-11 12:00:00 TS -8.30000 85.0000 main 1664 1654 _________O____ -1 -8.30000 85.0000 TC 17 258
1890011S08089 1890 1 SI MM NOT_NAMED 1890-01-11 15:00:00 TS -8.44972 84.2273 main 1651 1649 _________P____ -1 -8.44972 84.2273 TC 15 259
1890011S08089 1890 1 SI MM NOT_NAMED 1890-01-11 18:00:00 TS -8.60000 83.5000 main 1656 1652 _________O____ -1 -8.60000 83.5000 TC 14 257
1890011S08089 1890 1 SI MM NOT_NAMED 1890-01-11 21:00:00 TS -8.77699 82.8022 main 1665 1662 _________P____ -1 -8.77699 82.8022 TC 15 255
1890011S08089 1890 1 SI MM NOT_NAMED 1890-01-12 00:00:00 TS -9.00000 82.0000 main 1676 1674 _________O____ -1 -9.00000 82.0000 TC 19 255
1890011S08089 1890 1 SI MM NOT_NAMED 1890-01-12 03:00:00 TS -9.27760 80.9524 main 1703 1703 _________P____ -1 -9.27760 80.9524 TC 23 255
1890011S08089 1890 1 SI MM NOT_NAMED 1890-01-12 06:00:00 TS -9.60000 79.8000 main 1739 1739 _________O____ -1 -9.60000 79.8000 TC 24 254
1890011S08089 1890 1 SI MM NOT_NAMED 1890-01-12 09:00:00 TS -9.94242 78.6700 main 1782 1782 _________P____ -1 -9.94242 78.6700 TC 23 252
1890011S08089 1890 1 SI MM NOT_NAMED 1890-01-12 12:00:00 TS -10.3000 77.6000 main 1845 1845 _________O____ -1 -10.3000 77.6000 TC 21 251
1890011S08089 1890 1 SI MM NOT_NAMED 1890-01-12 15:00:00 TS -10.6345 76.6696 main 1898 1898 _________P____ -1 -10.6345 76.6696 TC 19 248
1890011S08089 1890 1 SI MM NOT_NAMED 1890-01-12 18:00:00 TS -11.0000 75.8000 main 1966 1966 _________O____ -1 -11.0000 75.8000 TC 20 245
1890011S08089 1890 1 SI MM NOT_NAMED 1890-01-12 21:00:00 TS -11.4576 74.8478 main 2052 1967 _________P____ -1 -11.4576 74.8478 TC 20 243
1890011S08089 1890 1 SI MM NOT_NAMED 1890-01-13 00:00:00 TS -11.9000 74.0000 main 1967 1894 _________O____ -1 -11.9000 74.0000 TC 16 242
1890011S08089 1890 1 SI MM NOT_NAMED 1890-01-13 03:00:00 TS -12.2220 73.3971 main 1894 1830 _________P____ -1 -12.2220 73.3971 TC 12 241
1890011S08089 1890 1 SI MM NOT_NAMED 1890-01-13 06:00:00 TS -12.5000 72.9000 main 1830 1766 _________O____ -1 -12.5000 72.9000 TC 12 241
1890011S08089 1890 1 SI MM NOT_NAMED 1890-01-13 09:00:00 TS -12.7924 72.3424 main 1757 1693 _________P____ -1 -12.7924 72.3424 TC 12 241
1890011S08089 1890 1 SI MM NOT_NAMED 1890-01-13 12:00:00 TS -13.1000 71.8000 main 1693 1629 _________O____ -1 -13.1000 71.8000 TC 12 238
1890011S08089 1890 1 SI MM NOT_NAMED 1890-01-13 15:00:00 TS -13.4349 71.2849 main 1629 1560 _________P____ -1 -13.4349 71.2849 TC 12 234
1890011S08089 1890 1 SI MM NOT_NAMED 1890-01-13 18:00:00 TS -13.8000 70.8000 main 1560 1501 _________O____ -1 -13.8000 70.8000 TC 12 230
1890011S08089 1890 1 SI MM NOT_NAMED 1890-01-13 21:00:00 TS -14.1927 70.3428 main 1491 1432 _________P____ -1 -14.1927 70.3428 TC 12 227
1890011S08089 1890 1 SI MM NOT_NAMED 1890-01-14 00:00:00 TS -14.6000 69.9000 main 1432 _________O____ -1 -14.6000 69.9000 TC 12 226

About IBTrACS Database

This database is a web-friendly format of International Best Track Archive for Climate Stewardship (IBTrACS), a global best track data archive curated by NOAA dating back to 1842.

Updated: 2021-10-08